Time;durP1;ratioP1;P1;durP2;ratioP2;P2;SDS_P1;SDS_P2;PMS_P1;PMS_P2;Temp;Humidity;BMP_temperature;BMP_pressure;BME280_temperature;BME280_humidity;BME280_pressure;Samples;Min_cycle;Max_cycle;Signal;HPM_P1;HPM_P2
2021/07/23 00:00:33;;;;;;;3.40;2.35;;;16.30;72.50;;;;;;2069966;28;20026;-87
2021/07/23 00:01:33;;;;;;;4.13;2.20;;;16.30;72.50;;;;;;2056924;28;20118;-88
2021/07/23 00:02:34;;;;;;;4.68;2.50;;;16.20;72.50;;;;;;2065990;28;20135;-88
2021/07/23 00:03:38;;;;;;;3.88;2.40;;;16.20;72.60;;;;;;2047655;28;20039;-89
2021/07/23 00:04:39;;;;;;;3.42;2.10;;;16.20;72.70;;;;;;2042909;28;20133;-88
2021/07/23 00:05:40;;;;;;;3.38;2.38;;;16.20;72.80;;;;;;2049647;28;20052;-89
2021/07/23 00:06:40;;;;;;;4.07;2.40;;;16.20;72.80;;;;;;2047203;29;20494;-88
2021/07/23 00:07:41;;;;;;;4.85;2.42;;;16.20;72.90;;;;;;2057835;28;20031;-89
2021/07/23 00:08:41;;;;;;;4.28;2.50;;;16.20;72.90;;;;;;2056727;28;20065;-89
2021/07/23 00:09:42;;;;;;;3.20;2.20;;;16.10;72.90;;;;;;2047331;29;20079;-88
2021/07/23 00:10:43;;;;;;;3.83;2.38;;;16.10;72.90;;;;;;2041892;29;20203;-89
2021/07/23 00:11:43;;;;;;;3.30;2.38;;;16.10;73.00;;;;;;2053156;28;20126;-89
2021/07/23 00:12:44;;;;;;;2.90;2.13;;;16.20;73.10;;;;;;2052887;28;20615;-89
2021/07/23 00:13:45;;;;;;;4.15;2.60;;;16.20;73.10;;;;;;2063508;28;20084;-88
2021/07/23 00:14:45;;;;;;;4.22;2.38;;;16.20;73.10;;;;;;2066124;28;20033;-89
2021/07/23 00:15:46;;;;;;;3.45;2.30;;;16.10;73.00;;;;;;2066029;28;20039;-89
2021/07/23 00:16:47;;;;;;;3.17;2.20;;;16.20;73.60;;;;;;2070638;28;20435;-89
2021/07/23 00:17:47;;;;;;;3.85;2.50;;;16.10;73.00;;;;;;2064855;28;20037;-89
2021/07/23 00:18:48;;;;;;;3.50;2.30;;;16.10;73.00;;;;;;2064990;28;20030;-89
2021/07/23 00:19:48;;;;;;;4.13;2.55;;;16.10;73.10;;;;;;2048808;28;20433;-89
2021/07/23 00:20:49;;;;;;;3.70;2.40;;;16.10;73.20;;;;;;2057458;28;20034;-89
2021/07/23 00:21:50;;;;;;;3.97;2.33;;;16.10;73.20;;;;;;2056883;28;20053;-89
2021/07/23 00:22:50;;;;;;;4.18;2.50;;;16.10;73.30;;;;;;2049147;28;20019;-89
2021/07/23 00:23:51;;;;;;;4.57;2.45;;;16.10;73.30;;;;;;2049480;29;20046;-88
2021/07/23 00:24:52;;;;;;;3.53;2.38;;;16.10;73.30;;;;;;2056285;28;20027;-87
2021/07/23 00:25:52;;;;;;;3.80;2.78;;;16.10;73.40;;;;;;2054665;28;20035;-89
2021/07/23 00:26:54;;;;;;;3.80;2.60;;;16.10;73.40;;;;;;2068552;28;20032;-89
2021/07/23 00:27:54;;;;;;;3.20;2.50;;;16.00;73.40;;;;;;2066030;28;20093;-89
2021/07/23 00:28:55;;;;;;;3.85;2.45;;;16.00;73.50;;;;;;2072844;28;20487;-88
2021/07/23 00:29:56;;;;;;;4.07;2.38;;;16.00;73.50;;;;;;2065032;28;20539;-89
2021/07/23 00:30:56;;;;;;;4.72;2.67;;;16.00;73.60;;;;;;2059579;28;20070;-89
2021/07/23 00:31:57;;;;;;;3.63;2.50;;;16.00;73.70;;;;;;2064710;28;20117;-88
2021/07/23 00:32:58;;;;;;;3.67;2.40;;;16.00;73.60;;;;;;2065574;28;20069;-89
2021/07/23 00:33:59;;;;;;;3.35;2.17;;;16.00;73.70;;;;;;2067786;28;20512;-88
2021/07/23 00:34:59;;;;;;;3.05;2.33;;;16.00;73.70;;;;;;2073290;28;20022;-89
2021/07/23 00:36:01;;;;;;;3.55;2.40;;;15.90;73.70;;;;;;2065322;28;20054;-89
2021/07/23 00:37:02;;;;;;;3.33;2.30;;;16.00;73.80;;;;;;2065686;28;20158;-89
2021/07/23 00:38:02;;;;;;;3.53;2.53;;;15.90;73.70;;;;;;2065647;28;20022;-89
2021/07/23 00:39:03;;;;;;;4.00;2.25;;;16.00;73.90;;;;;;2065652;28;20037;-88
2021/07/23 00:40:06;;;;;;;3.40;2.03;;;16.00;73.90;;;;;;2057262;28;20059;-89
2021/07/23 00:41:06;;;;;;;4.18;2.30;;;15.90;73.90;;;;;;2057783;28;20023;-89
2021/07/23 00:42:07;;;;;;;4.45;2.22;;;15.90;73.90;;;;;;2054637;28;20027;-88
2021/07/23 00:43:08;;;;;;;4.88;2.20;;;15.90;73.90;;;;;;2053132;28;20041;-88
2021/07/23 00:44:08;;;;;;;3.92;2.03;;;15.90;73.90;;;;;;2068065;28;20026;-89
2021/07/23 00:45:10;;;;;;;3.10;2.10;;;16.00;74.00;;;;;;2060510;28;20044;-88
2021/07/23 00:46:11;;;;;;;3.83;2.13;;;15.90;74.00;;;;;;2071909;28;20037;-89
2021/07/23 00:47:12;;;;;;;3.78;2.08;;;15.90;74.00;;;;;;2069570;28;20038;-89
2021/07/23 00:48:14;;;;;;;3.47;2.38;;;15.90;74.00;;;;;;2070558;28;20171;-89
2021/07/23 00:49:15;;;;;;;3.30;2.33;;;15.90;73.90;;;;;;2070373;28;20026;-89
2021/07/23 00:50:16;;;;;;;3.50;2.05;;;15.90;73.90;;;;;;2062831;28;20039;-88
2021/07/23 00:51:17;;;;;;;3.50;2.10;;;15.90;73.90;;;;;;2069596;28;20471;-89
2021/07/23 00:52:18;;;;;;;3.35;2.38;;;15.90;74.00;;;;;;2058699;28;20027;-89
2021/07/23 00:53:19;;;;;;;4.22;2.20;;;15.90;74.00;;;;;;2062084;28;20018;-89
2021/07/23 00:54:20;;;;;;;3.42;2.20;;;15.90;74.00;;;;;;2081017;28;20018;-86
2021/07/23 00:55:21;;;;;;;3.30;2.15;;;15.90;74.00;;;;;;2068112;28;20011;-86
2021/07/23 00:56:22;;;;;;;3.22;2.00;;;15.90;74.00;;;;;;2064034;28;20027;-89
2021/07/23 00:57:24;;;;;;;4.30;2.17;;;15.90;74.10;;;;;;2078024;28;20029;-89
2021/07/23 00:58:26;;;;;;;3.45;2.25;;;15.90;74.10;;;;;;2073853;28;20056;-88
2021/07/23 00:59:27;;;;;;;3.50;2.30;;;15.90;74.10;;;;;;2069712;28;20026;-88
2021/07/23 01:00:27;;;;;;;3.80;2.38;;;15.90;74.10;;;;;;2058609;28;20486;-89
2021/07/23 01:01:29;;;;;;;3.10;2.20;;;15.90;74.10;;;;;;2050263;28;20131;-88
2021/07/23 01:02:30;;;;;;;3.88;2.13;;;15.90;74.20;;;;;;2065356;28;20022;-89
2021/07/23 01:03:31;;;;;;;3.22;2.10;;;15.90;74.20;;;;;;2069234;28;20492;-88
2021/07/23 01:04:32;;;;;;;3.60;2.22;;;15.90;74.30;;;;;;2057030;28;20033;-89
2021/07/23 01:05:35;;;;;;;3.40;2.20;;;15.90;74.30;;;;;;2064145;28;20035;-88
2021/07/23 01:06:36;;;;;;;3.28;2.05;;;15.90;74.20;;;;;;2065541;28;20141;-88
2021/07/23 01:07:37;;;;;;;2.75;2.00;;;15.90;74.70;;;;;;2064870;28;20563;-89
2021/07/23 01:08:38;;;;;;;3.53;2.15;;;15.90;74.30;;;;;;2059001;28;20034;-88
2021/07/23 01:09:38;;;;;;;2.80;2.08;;;15.90;74.30;;;;;;2073554;28;20030;-88
2021/07/23 01:10:39;;;;;;;2.47;1.92;;;15.80;74.20;;;;;;2061160;28;21993;-89
2021/07/23 01:11:41;;;;;;;3.38;2.05;;;15.90;74.30;;;;;;2049460;28;20114;-88
2021/07/23 01:12:43;;;;;;;3.33;2.30;;;15.90;74.30;;;;;;2057653;28;20118;-88
2021/07/23 01:13:44;;;;;;;2.75;2.03;;;15.90;74.30;;;;;;2064111;28;20037;-89
2021/07/23 01:14:45;;;;;;;3.35;2.00;;;15.90;74.30;;;;;;2057707;28;20069;-88
2021/07/23 01:15:46;;;;;;;4.63;2.25;;;15.90;74.40;;;;;;2061767;28;20034;-88
2021/07/23 01:16:46;;;;;;;3.38;2.15;;;15.90;74.40;;;;;;2066446;28;20588;-89
2021/07/23 01:17:48;;;;;;;4.72;2.40;;;15.90;74.40;;;;;;2059344;28;20026;-88
2021/07/23 01:18:48;;;;;;;3.42;2.38;;;15.80;74.40;;;;;;2073573;28;20030;-88
2021/07/23 01:20:00;;;;;;;3.33;2.08;;;15.80;74.50;;;;;;2060955;28;20180;-88
2021/07/23 01:21:02;;;;;;;4.53;1.90;;;15.80;75.10;;;;;;2052437;28;20027;-88
2021/07/23 01:22:06;;;;;;;3.03;2.10;;;15.80;74.60;;;;;;2057301;28;20095;-88
2021/07/23 01:23:08;;;;;;;3.00;2.08;;;15.80;74.60;;;;;;2065327;28;20106;-88
2021/07/23 01:24:13;;;;;;;4.25;2.42;;;15.80;74.60;;;;;;2071489;28;20164;-89
2021/07/23 01:25:14;;;;;;;3.63;2.08;;;15.80;74.70;;;;;;2072134;28;20045;-88
2021/07/23 01:26:15;;;;;;;3.33;2.22;;;15.80;74.70;;;;;;2057517;28;20053;-89
2021/07/23 01:27:16;;;;;;;2.83;1.98;;;15.80;74.80;;;;;;2057087;28;20126;-88
2021/07/23 01:28:18;;;;;;;3.90;1.98;;;15.80;74.80;;;;;;2066457;28;20053;-89
2021/07/23 01:29:19;;;;;;;3.25;2.08;;;15.70;74.90;;;;;;2069490;28;20030;-89
2021/07/23 01:30:24;;;;;;;3.33;2.42;;;15.80;74.80;;;;;;2048891;29;20039;-88
2021/07/23 01:31:24;;;;;;;3.05;2.10;;;15.80;74.90;;;;;;2050051;28;20043;-89
2021/07/23 01:32:25;;;;;;;3.38;2.00;;;15.70;74.80;;;;;;2057139;28;20069;-88
2021/07/23 01:33:26;;;;;;;3.47;2.38;;;15.70;74.80;;;;;;2071532;28;20032;-89
2021/07/23 01:34:26;;;;;;;4.20;2.42;;;15.70;74.80;;;;;;2057078;28;20334;-89
2021/07/23 01:35:27;;;;;;;3.53;2.50;;;15.70;74.90;;;;;;2060022;28;20066;-89
2021/07/23 01:36:28;;;;;;;4.72;2.20;;;15.70;74.90;;;;;;2048334;29;20550;-89
2021/07/23 01:37:29;;;;;;;3.45;2.40;;;15.70;75.00;;;;;;2042111;29;20036;-89
2021/07/23 01:38:32;;;;;;;3.85;2.47;;;15.70;75.00;;;;;;2040055;28;20119;-88
2021/07/23 01:39:33;;;;;;;3.22;2.20;;;15.70;75.00;;;;;;2054906;28;20177;-89
2021/07/23 01:40:33;;;;;;;5.18;2.60;;;15.70;75.00;;;;;;2065708;28;20512;-89
2021/07/23 01:41:35;;;;;;;4.20;2.60;;;15.70;75.10;;;;;;2065137;28;20097;-89
2021/07/23 01:42:36;;;;;;;3.80;2.30;;;15.60;75.10;;;;;;2056076;28;20039;-88
2021/07/23 01:43:38;;;;;;;4.25;2.78;;;15.60;75.20;;;;;;2056206;28;20173;-89
2021/07/23 01:44:39;;;;;;;3.58;2.60;;;15.60;75.30;;;;;;2069588;28;20034;-88
2021/07/23 01:45:40;;;;;;;3.08;2.40;;;15.60;75.40;;;;;;2071468;28;20033;-89
2021/07/23 01:46:40;;;;;;;3.90;2.53;;;15.60;75.40;;;;;;2065230;28;20086;-89
2021/07/23 01:47:41;;;;;;;3.83;2.67;;;15.60;76.00;;;;;;2064491;28;20032;-87
2021/07/23 01:48:42;;;;;;;3.45;2.28;;;15.60;75.40;;;;;;2056584;28;20034;-88
2021/07/23 01:49:42;;;;;;;3.10;2.35;;;15.60;75.40;;;;;;2051691;28;20525;-89
2021/07/23 01:50:43;;;;;;;3.47;2.50;;;15.60;75.40;;;;;;2055515;28;20046;-89
2021/07/23 01:51:43;;;;;;;4.88;2.50;;;15.60;75.40;;;;;;2049823;28;20035;-88
2021/07/23 01:52:44;;;;;;;4.20;2.72;;;15.60;75.50;;;;;;2041338;29;20577;-89
2021/07/23 01:53:45;;;;;;;3.83;2.53;;;15.60;75.50;;;;;;2048181;28;20454;-89
2021/07/23 01:54:47;;;;;;;4.13;2.40;;;15.60;75.50;;;;;;2049103;28;20043;-89
2021/07/23 01:55:47;;;;;;;4.13;2.63;;;15.60;75.50;;;;;;2064018;28;20065;-88
2021/07/23 01:56:48;;;;;;;3.85;2.67;;;15.50;75.50;;;;;;2065040;28;20066;-89
2021/07/23 01:57:49;;;;;;;5.07;3.22;;;15.60;75.60;;;;;;2056017;28;20035;-89
2021/07/23 01:58:49;;;;;;;3.58;2.47;;;15.60;75.60;;;;;;2056270;28;20777;-89
2021/07/23 01:59:50;;;;;;;4.47;2.83;;;15.50;75.60;;;;;;2049344;28;20042;-89
2021/07/23 02:00:51;;;;;;;3.35;2.40;;;15.50;75.60;;;;;;2050109;28;20059;-89
2021/07/23 02:01:51;;;;;;;3.88;2.80;;;15.50;75.70;;;;;;2059932;28;20145;-89
2021/07/23 02:02:52;;;;;;;4.70;2.65;;;15.50;75.70;;;;;;2071623;28;20339;-89
2021/07/23 02:03:53;;;;;;;3.72;2.72;;;15.50;75.70;;;;;;2073231;28;20568;-89
2021/07/23 02:04:53;;;;;;;4.25;2.92;;;15.50;75.70;;;;;;2069481;28;20015;-89
2021/07/23 02:05:54;;;;;;;4.75;2.70;;;15.50;75.80;;;;;;2072511;28;20113;-89
2021/07/23 02:06:55;;;;;;;4.30;2.72;;;15.50;75.80;;;;;;2063416;28;20026;-89
2021/07/23 02:07:55;;;;;;;4.63;2.70;;;15.50;75.80;;;;;;2064459;28;20064;-88
2021/07/23 02:08:56;;;;;;;4.10;2.55;;;15.50;75.80;;;;;;2048305;28;20035;-89
2021/07/23 02:09:56;;;;;;;6.82;3.00;;;15.50;75.90;;;;;;2044280;29;20027;-89
2021/07/23 02:10:57;;;;;;;3.58;2.67;;;15.50;75.90;;;;;;2040956;29;20036;-88
2021/07/23 02:11:58;;;;;;;5.22;3.22;;;15.50;75.90;;;;;;2056885;28;20117;-88
2021/07/23 02:13:00;;;;;;;4.18;2.88;;;15.40;75.90;;;;;;2075134;28;20029;-88
2021/07/23 02:14:06;;;;;;;3.92;2.60;;;15.40;76.00;;;;;;2066639;28;20507;-89
2021/07/23 02:15:07;;;;;;;3.40;2.40;;;15.40;76.10;;;;;;2062015;28;20378;-89
2021/07/23 02:16:08;;;;;;;4.00;2.80;;;15.40;76.10;;;;;;2058149;28;20508;-89
2021/07/23 02:17:09;;;;;;;3.88;2.60;;;15.40;76.10;;;;;;2058620;28;20037;-89
2021/07/23 02:18:10;;;;;;;4.30;2.40;;;15.40;76.10;;;;;;2058839;28;20026;-88
2021/07/23 02:19:10;;;;;;;4.03;2.60;;;15.40;76.10;;;;;;2049853;28;20019;-89
2021/07/23 02:20:11;;;;;;;4.18;2.60;;;15.40;76.20;;;;;;2050614;28;20031;-88
2021/07/23 02:21:12;;;;;;;4.35;2.83;;;15.40;76.10;;;;;;2057923;28;20109;-89
2021/07/23 02:22:13;;;;;;;4.28;2.40;;;15.40;76.20;;;;;;2058906;28;20022;-89
2021/07/23 02:23:14;;;;;;;3.75;2.45;;;15.40;76.20;;;;;;2063005;28;20401;-88
2021/07/23 02:24:15;;;;;;;4.00;2.60;;;15.40;76.20;;;;;;2050901;28;20200;-89
2021/07/23 02:25:15;;;;;;;3.88;2.42;;;15.40;76.20;;;;;;2058935;28;20039;-88
2021/07/23 02:26:17;;;;;;;5.15;2.88;;;15.40;76.20;;;;;;2065636;28;20026;-89
2021/07/23 02:27:18;;;;;;;4.40;2.60;;;15.40;76.20;;;;;;2073188;28;20467;-88
2021/07/23 02:28:19;;;;;;;5.35;2.67;;;15.40;76.30;;;;;;2066833;28;20030;-88
2021/07/23 02:29:20;;;;;;;3.63;2.58;;;15.30;76.30;;;;;;2045019;28;20032;-88
2021/07/23 02:30:20;;;;;;;4.25;2.90;;;15.30;76.30;;;;;;2050657;28;20031;-89
2021/07/23 02:31:21;;;;;;;3.22;2.30;;;15.30;76.30;;;;;;2057378;28;20117;-88
2021/07/23 02:32:21;;;;;;;4.75;2.95;;;15.30;76.40;;;;;;2064416;28;20486;-88
2021/07/23 02:33:22;;;;;;;3.83;2.65;;;15.30;76.40;;;;;;2049986;29;20038;-88
2021/07/23 02:34:23;;;;;;;3.97;2.60;;;15.30;76.40;;;;;;2042128;29;20024;-88
2021/07/23 02:35:23;;;;;;;4.45;2.85;;;15.30;76.40;;;;;;2056136;28;20027;-88
2021/07/23 02:36:24;;;;;;;3.80;2.65;;;15.30;76.50;;;;;;2065942;28;20041;-89
2021/07/23 02:37:25;;;;;;;4.43;2.60;;;15.30;76.50;;;;;;2066597;28;20539;-89
2021/07/23 02:38:25;;;;;;;4.13;2.83;;;15.30;76.60;;;;;;2066608;28;20038;-89
2021/07/23 02:39:26;;;;;;;4.10;2.67;;;15.20;76.50;;;;;;2065412;28;20547;-88
2021/07/23 02:40:27;;;;;;;3.63;2.50;;;15.30;76.60;;;;;;2074888;28;20153;-88
2021/07/23 02:41:27;;;;;;;3.80;2.63;;;15.30;76.60;;;;;;2081286;28;20029;-89
2021/07/23 02:42:28;;;;;;;4.72;2.58;;;15.30;76.60;;;;;;2076210;28;20026;-88
2021/07/23 02:43:28;;;;;;;4.10;2.55;;;15.30;76.60;;;;;;2058666;28;20031;-88
2021/07/23 02:44:29;;;;;;;4.68;2.70;;;15.30;76.70;;;;;;2058603;28;20051;-89
2021/07/23 02:45:30;;;;;;;4.00;2.88;;;15.20;76.70;;;;;;2066505;28;20026;-89
2021/07/23 02:46:30;;;;;;;4.15;2.58;;;15.30;76.80;;;;;;2049641;28;20151;-89
2021/07/23 02:47:31;;;;;;;3.97;2.40;;;15.20;76.70;;;;;;2058525;28;20122;-88
2021/07/23 02:48:32;;;;;;;3.72;2.45;;;15.20;76.70;;;;;;2058593;28;20027;-89
2021/07/23 02:49:32;;;;;;;4.40;2.50;;;15.20;76.70;;;;;;2065974;28;20030;-89
2021/07/23 02:50:33;;;;;;;3.88;2.75;;;15.20;76.70;;;;;;2066039;28;20085;-88
2021/07/23 02:51:33;;;;;;;4.65;2.67;;;15.20;76.80;;;;;;2056965;28;20105;-89
2021/07/23 02:52:36;;;;;;;4.22;2.85;;;15.20;76.80;;;;;;2050430;29;20027;-88
2021/07/23 02:53:37;;;;;;;3.40;2.58;;;15.20;76.90;;;;;;2050463;28;20039;-89
2021/07/23 02:54:37;;;;;;;4.25;2.80;;;15.20;77.00;;;;;;2050700;28;20031;-89
2021/07/23 02:55:38;;;;;;;4.22;2.88;;;15.20;77.10;;;;;;2050444;28;20039;-89
2021/07/23 02:56:39;;;;;;;3.55;2.67;;;15.20;77.10;;;;;;2042954;29;20492;-89
2021/07/23 02:57:39;;;;;;;3.90;2.65;;;15.10;77.10;;;;;;2053053;28;20119;-88
2021/07/23 02:58:42;;;;;;;5.00;3.03;;;15.10;77.10;;;;;;2058453;28;20410;-88
2021/07/23 02:59:42;;;;;;;4.53;3.10;;;15.10;77.10;;;;;;2057214;28;20051;-88
2021/07/23 03:00:43;;;;;;;3.90;2.53;;;15.10;77.10;;;;;;2059723;28;20022;-88
2021/07/23 03:01:44;;;;;;;4.30;2.60;;;15.10;77.20;;;;;;2067244;28;20045;-89
2021/07/23 03:02:44;;;;;;;4.18;2.80;;;15.10;77.90;;;;;;2070532;28;20463;-89
2021/07/23 03:03:45;;;;;;;3.97;2.75;;;15.10;77.30;;;;;;2057455;28;20031;-89
2021/07/23 03:04:46;;;;;;;3.72;2.47;;;15.00;77.30;;;;;;2057536;28;20028;-89
2021/07/23 03:05:46;;;;;;;3.30;2.45;;;15.00;77.40;;;;;;2066127;28;20040;-89
2021/07/23 03:06:47;;;;;;;4.03;2.58;;;15.00;77.40;;;;;;2072678;28;20030;-89
2021/07/23 03:07:53;;;;;;;5.63;2.78;;;15.00;77.40;;;;;;2074433;28;20041;-88
2021/07/23 03:08:54;;;;;;;4.15;2.65;;;15.00;77.40;;;;;;2074138;28;20075;-89
2021/07/23 03:09:55;;;;;;;3.38;2.45;;;15.00;77.40;;;;;;2081321;28;20021;-89
2021/07/23 03:10:56;;;;;;;4.60;2.80;;;15.00;77.50;;;;;;2067042;28;20045;-89
2021/07/23 03:11:58;;;;;;;3.95;2.92;;;15.00;77.50;;;;;;2066405;28;20057;-89
2021/07/23 03:12:59;;;;;;;3.50;2.50;;;15.00;77.50;;;;;;2059460;28;20038;-89
2021/07/23 03:13:59;;;;;;;3.72;2.42;;;14.90;77.60;;;;;;2050592;28;20075;-89
2021/07/23 03:15:00;;;;;;;4.18;2.85;;;14.90;77.60;;;;;;2067214;28;20812;-89
2021/07/23 03:16:01;;;;;;;4.47;2.85;;;14.90;77.70;;;;;;2077319;28;20026;-88
2021/07/23 03:17:01;;;;;;;3.88;2.50;;;14.90;77.80;;;;;;2083475;28;20064;-88
2021/07/23 03:18:02;;;;;;;4.10;2.72;;;14.90;77.80;;;;;;2074387;28;20034;-89
2021/07/23 03:19:03;;;;;;;4.32;2.70;;;14.90;77.80;;;;;;2066772;28;20470;-88
2021/07/23 03:20:04;;;;;;;4.30;3.00;;;14.90;77.90;;;;;;2069821;28;20136;-89
2021/07/23 03:21:05;;;;;;;4.70;2.67;;;14.90;77.90;;;;;;2058854;28;20073;-89
2021/07/23 03:22:05;;;;;;;3.50;2.53;;;14.90;77.90;;;;;;2058963;28;20030;-89
2021/07/23 03:23:06;;;;;;;4.72;2.70;;;14.90;77.90;;;;;;2059065;28;20539;-89
2021/07/23 03:24:07;;;;;;;4.57;2.60;;;14.90;77.80;;;;;;2059044;28;20027;-89
2021/07/23 03:25:09;;;;;;;5.00;2.95;;;14.90;77.80;;;;;;2051708;29;20043;-89
2021/07/23 03:26:10;;;;;;;4.18;2.65;;;14.90;77.80;;;;;;2062793;28;20007;-87
2021/07/23 03:27:10;;;;;;;4.00;2.95;;;14.90;77.80;;;;;;2051882;28;20063;-88
2021/07/23 03:28:11;;;;;;;3.65;2.70;;;14.90;77.80;;;;;;2059768;28;20015;-89
2021/07/23 03:29:12;;;;;;;4.65;2.72;;;14.90;78.50;;;;;;2068344;28;20017;-88
2021/07/23 03:30:13;;;;;;;4.00;2.78;;;14.90;78.00;;;;;;2074561;28;20207;-89
2021/07/23 03:31:14;;;;;;;5.68;2.95;;;14.90;78.00;;;;;;2083519;28;20049;-88
2021/07/23 03:32:15;;;;;;;4.22;2.90;;;14.90;78.00;;;;;;2080784;28;20096;-89
2021/07/23 03:33:15;;;;;;;4.85;2.97;;;14.90;78.00;;;;;;2067191;28;20149;-89
2021/07/23 03:34:16;;;;;;;4.78;3.17;;;14.90;78.10;;;;;;2065734;28;20038;-88
2021/07/23 03:35:16;;;;;;;3.53;2.60;;;14.90;78.10;;;;;;2074476;28;20128;-89
2021/07/23 03:36:17;;;;;;;5.20;2.70;;;14.90;78.00;;;;;;2064717;28;20177;-89
2021/07/23 03:37:18;;;;;;;3.80;2.47;;;14.90;78.10;;;;;;2065918;28;20027;-89
2021/07/23 03:38:18;;;;;;;3.83;2.80;;;14.90;78.10;;;;;;2063867;28;20607;-89
2021/07/23 03:39:19;;;;;;;4.10;2.83;;;14.90;78.10;;;;;;2043840;29;20074;-88
2021/07/23 03:40:20;;;;;;;4.53;2.97;;;14.90;78.00;;;;;;2050256;29;20024;-89
2021/07/23 03:41:20;;;;;;;3.50;2.40;;;14.80;78.00;;;;;;2058171;28;20038;-88
2021/07/23 03:42:21;;;;;;;5.20;2.97;;;14.80;78.10;;;;;;2074290;28;20485;-89
2021/07/23 03:43:21;;;;;;;4.07;2.67;;;14.90;78.20;;;;;;2057407;28;20070;-89
2021/07/23 03:44:22;;;;;;;4.32;2.97;;;14.90;78.20;;;;;;2064790;28;20418;-88
2021/07/23 03:45:23;;;;;;;3.80;2.70;;;14.90;78.20;;;;;;2050331;28;20123;-88
2021/07/23 03:46:23;;;;;;;3.67;2.63;;;14.80;78.20;;;;;;2065718;28;20033;-88
2021/07/23 03:47:24;;;;;;;3.83;2.42;;;14.90;78.20;;;;;;2057827;28;20070;-89
2021/07/23 03:48:25;;;;;;;4.15;2.80;;;14.80;78.20;;;;;;2065019;28;20022;-88
2021/07/23 03:49:26;;;;;;;4.65;3.00;;;14.80;78.20;;;;;;2066168;28;20133;-88
2021/07/23 03:50:26;;;;;;;4.63;2.80;;;14.90;78.30;;;;;;2058128;28;20023;-88
2021/07/23 03:51:27;;;;;;;4.45;3.05;;;14.90;78.90;;;;;;2056719;28;20550;-88
2021/07/23 03:52:28;;;;;;;4.05;2.75;;;14.80;78.20;;;;;;2049794;28;20067;-88
2021/07/23 03:53:28;;;;;;;4.03;2.80;;;14.90;78.20;;;;;;2041088;29;20035;-88
2021/07/23 03:54:29;;;;;;;4.85;3.00;;;14.80;78.20;;;;;;2041734;29;20067;-88
2021/07/23 03:55:29;;;;;;;4.97;2.83;;;14.90;78.30;;;;;;2049848;29;20023;-88
2021/07/23 03:56:30;;;;;;;4.88;3.13;;;14.90;78.30;;;;;;2065825;28;20049;-88
2021/07/23 03:57:31;;;;;;;4.70;2.80;;;14.80;78.30;;;;;;2056989;28;20481;-88
2021/07/23 03:58:32;;;;;;;4.40;2.70;;;14.90;78.40;;;;;;2049331;28;20035;-88
2021/07/23 03:59:33;;;;;;;4.50;2.90;;;14.80;78.30;;;;;;2056793;28;20051;-89
2021/07/23 04:00:34;;;;;;;4.47;2.70;;;14.90;78.40;;;;;;2056102;28;20453;-88
2021/07/23 04:01:34;;;;;;;4.50;2.80;;;14.80;78.30;;;;;;2056558;28;20066;-88
2021/07/23 04:02:35;;;;;;;3.60;2.63;;;14.90;78.50;;;;;;2065564;28;20042;-88
2021/07/23 04:03:36;;;;;;;4.18;2.47;;;14.90;79.00;;;;;;2069351;28;20053;-88
2021/07/23 04:04:38;;;;;;;5.50;3.00;;;14.90;78.40;;;;;;2061132;28;20580;-89
2021/07/23 04:05:39;;;;;;;4.38;2.97;;;14.90;78.40;;;;;;2066404;28;20065;-88
2021/07/23 04:06:39;;;;;;;5.32;2.95;;;14.90;78.40;;;;;;2064880;28;20443;-89
2021/07/23 04:07:40;;;;;;;3.92;2.75;;;14.90;78.40;;;;;;2052118;28;20028;-88
2021/07/23 04:08:41;;;;;;;3.70;2.75;;;14.80;78.30;;;;;;2067304;28;20038;-88
2021/07/23 04:09:42;;;;;;;4.20;2.63;;;14.90;78.50;;;;;;2057744;28;20023;-88
2021/07/23 04:10:42;;;;;;;5.13;2.95;;;14.80;78.30;;;;;;2051816;28;20468;-88
2021/07/23 04:11:50;;;;;;;5.63;3.17;;;14.80;78.40;;;;;;2057638;28;20034;-89
2021/07/23 04:12:51;;;;;;;4.43;3.00;;;14.90;78.50;;;;;;2050850;28;20576;-89
2021/07/23 04:13:52;;;;;;;4.90;2.78;;;14.90;78.50;;;;;;2038520;29;20116;-88
2021/07/23 04:14:52;;;;;;;4.45;2.92;;;14.80;78.40;;;;;;2049966;28;20026;-88
2021/07/23 04:15:53;;;;;;;3.85;2.60;;;14.90;78.50;;;;;;2065175;28;20077;-88
2021/07/23 04:16:54;;;;;;;4.43;2.80;;;14.90;78.50;;;;;;2065495;28;20054;-89
2021/07/23 04:17:54;;;;;;;4.25;2.92;;;14.90;78.50;;;;;;2057216;28;20378;-89
2021/07/23 04:18:55;;;;;;;4.35;2.90;;;14.90;78.50;;;;;;2057884;28;20046;-88
2021/07/23 04:19:55;;;;;;;5.38;3.00;;;14.90;78.50;;;;;;2065343;28;20568;-88
2021/07/23 04:20:56;;;;;;;4.53;3.15;;;14.90;78.40;;;;;;2057923;28;20031;-88
2021/07/23 04:21:56;;;;;;;4.78;2.75;;;14.90;78.40;;;;;;2057090;28;20031;-89
2021/07/23 04:22:57;;;;;;;4.10;2.80;;;14.90;78.40;;;;;;2041667;29;20055;-88
2021/07/23 04:24:01;;;;;;;3.92;2.80;;;14.90;78.40;;;;;;2041095;28;20027;-88
2021/07/23 04:25:02;;;;;;;4.22;2.70;;;14.90;78.40;;;;;;2050166;28;20031;-88
2021/07/23 04:26:04;;;;;;;4.43;2.50;;;14.90;78.40;;;;;;2056272;28;20023;-88
2021/07/23 04:27:04;;;;;;;4.65;2.67;;;14.90;78.40;;;;;;2041968;28;20072;-89
2021/07/23 04:28:06;;;;;;;4.35;2.78;;;14.90;78.40;;;;;;2042261;28;20126;-89
2021/07/23 04:29:07;;;;;;;3.67;2.67;;;14.90;78.50;;;;;;2047390;28;20031;-88
2021/07/23 04:30:08;;;;;;;5.25;2.70;;;15.00;78.50;;;;;;2061154;28;20030;-88
2021/07/23 04:31:08;;;;;;;4.00;2.72;;;15.00;78.50;;;;;;2073045;28;20516;-88
2021/07/23 04:32:09;;;;;;;4.38;3.08;;;15.00;78.50;;;;;;2057749;28;20078;-88
2021/07/23 04:33:10;;;;;;;4.65;3.10;;;15.00;78.50;;;;;;2057314;28;20027;-88
2021/07/23 04:34:10;;;;;;;4.20;2.90;;;15.00;78.50;;;;;;2057674;28;20026;-88
2021/07/23 04:35:11;;;;;;;4.68;3.00;;;15.00;78.50;;;;;;2048948;28;20058;-88
2021/07/23 04:36:12;;;;;;;5.10;3.13;;;14.90;78.40;;;;;;2056632;28;20027;-88
2021/07/23 04:37:12;;;;;;;4.35;2.70;;;15.00;79.20;;;;;;2042164;29;20055;-89
2021/07/23 04:38:13;;;;;;;4.00;2.75;;;15.00;79.20;;;;;;2058446;28;20023;-90
2021/07/23 04:39:14;;;;;;;4.80;3.13;;;15.00;78.50;;;;;;2059151;28;20078;-88
2021/07/23 04:40:14;;;;;;;4.70;3.08;;;14.90;78.50;;;;;;2066085;28;20022;-89
2021/07/23 04:41:15;;;;;;;4.50;2.83;;;15.00;78.60;;;;;;2065052;28;20310;-89
2021/07/23 04:42:16;;;;;;;3.88;2.72;;;15.00;78.60;;;;;;2064689;28;20031;-88
2021/07/23 04:43:16;;;;;;;4.25;2.78;;;15.00;78.60;;;;;;2057576;28;20026;-88
2021/07/23 04:44:17;;;;;;;3.53;2.38;;;15.00;78.60;;;;;;2080015;28;20452;-88
2021/07/23 04:45:17;;;;;;;3.92;2.75;;;15.00;78.60;;;;;;2065604;28;20069;-88
2021/07/23 04:46:18;;;;;;;4.30;2.85;;;15.00;78.60;;;;;;2065484;28;20113;-88
2021/07/23 04:47:19;;;;;;;4.75;2.75;;;15.00;78.50;;;;;;2049500;29;20027;-89
2021/07/23 04:48:19;;;;;;;4.15;2.97;;;15.00;78.50;;;;;;2053191;28;20412;-88
2021/07/23 04:49:20;;;;;;;4.85;2.90;;;15.00;79.10;;;;;;2065704;28;20166;-88
2021/07/23 04:50:20;;;;;;;3.65;2.80;;;15.10;78.50;;;;;;2065043;28;20018;-88
2021/07/23 04:51:21;;;;;;;5.13;2.95;;;15.00;78.40;;;;;;2066874;28;20049;-89
2021/07/23 04:52:22;;;;;;;4.00;2.65;;;15.10;79.10;;;;;;2073004;28;20026;-88
2021/07/23 04:53:22;;;;;;;4.65;2.97;;;15.10;78.40;;;;;;2056648;28;20493;-88
2021/07/23 04:54:23;;;;;;;5.00;3.05;;;15.10;78.40;;;;;;2049552;29;20043;-89
2021/07/23 04:55:24;;;;;;;4.40;2.90;;;15.10;78.40;;;;;;2065383;28;20019;-88
2021/07/23 04:56:25;;;;;;;4.72;3.30;;;15.10;78.40;;;;;;2077199;28;20025;-88
2021/07/23 04:57:29;;;;;;;5.03;3.20;;;15.10;79.00;;;;;;2049709;28;20035;-89
2021/07/23 04:58:30;;;;;;;5.15;2.97;;;15.20;78.40;;;;;;2053871;28;20382;-88
2021/07/23 04:59:31;;;;;;;4.40;2.88;;;15.20;78.40;;;;;;2058485;28;20033;-88
2021/07/23 05:00:31;;;;;;;3.88;2.70;;;15.20;78.30;;;;;;2055959;28;20070;-88
2021/07/23 05:01:34;;;;;;;3.80;2.50;;;15.20;78.20;;;;;;2064649;28;20041;-89
2021/07/23 05:02:36;;;;;;;4.57;2.72;;;15.20;78.20;;;;;;2065601;28;20102;-88
2021/07/23 05:03:38;;;;;;;3.58;2.42;;;15.30;78.20;;;;;;2045641;28;20493;-89
2021/07/23 05:04:38;;;;;;;4.15;2.70;;;15.30;78.20;;;;;;2057664;28;20023;-88
2021/07/23 05:05:43;;;;;;;4.20;2.83;;;15.30;78.20;;;;;;2065107;28;20406;-89
2021/07/23 05:06:44;;;;;;;3.63;2.30;;;15.30;78.20;;;;;;2072514;28;20052;-88
2021/07/23 05:07:44;;;;;;;3.70;2.55;;;15.30;78.20;;;;;;2064626;28;20584;-89
2021/07/23 05:08:45;;;;;;;3.63;2.42;;;15.30;78.20;;;;;;2056124;28;20027;-89
2021/07/23 05:09:45;;;;;;;3.50;2.08;;;15.40;78.20;;;;;;2056846;28;20405;-88
2021/07/23 05:10:46;;;;;;;3.65;2.40;;;15.40;78.10;;;;;;2057299;28;20121;-88
2021/07/23 05:11:47;;;;;;;5.50;2.65;;;15.50;78.10;;;;;;2049151;28;20544;-88
2021/07/23 05:12:48;;;;;;;4.43;2.60;;;15.50;77.90;;;;;;2051941;28;20066;-89
2021/07/23 05:13:48;;;;;;;3.70;2.60;;;15.50;77.90;;;;;;2060567;28;20490;-88
2021/07/23 05:14:49;;;;;;;3.80;2.53;;;15.60;77.80;;;;;;2058146;28;20074;-89
2021/07/23 05:15:50;;;;;;;3.83;2.50;;;15.60;77.70;;;;;;2063876;28;20070;-88
2021/07/23 05:16:51;;;;;;;4.03;2.60;;;15.70;77.60;;;;;;2065137;28;20098;-89
2021/07/23 05:17:51;;;;;;;3.83;2.55;;;15.70;77.50;;;;;;2064799;28;20034;-88